sensor_id;sensor_type;location;lat;lon;timestamp;P1;durP1;ratioP1;P2;durP2;ratioP2
71606;SDS011;60641;53.556;9.914;2024-02-23T00:01:05;2.50;;;0.40;;
71606;SDS011;60641;53.556;9.914;2024-02-23T00:03:49;1.10;;;0.30;;
71606;SDS011;60641;53.556;9.914;2024-02-23T00:06:16;3.10;;;0.40;;
71606;SDS011;60641;53.556;9.914;2024-02-23T00:08:43;1.60;;;0.40;;
71606;SDS011;60641;53.556;9.914;2024-02-23T00:11:10;2.30;;;0.40;;
71606;SDS011;60641;53.556;9.914;2024-02-23T00:13:36;3.70;;;0.50;;
71606;SDS011;60641;53.556;9.914;2024-02-23T00:16:03;2.70;;;0.50;;
71606;SDS011;60641;53.556;9.914;2024-02-23T00:18:29;4.80;;;0.50;;
71606;SDS011;60641;53.556;9.914;2024-02-23T00:20:56;4.10;;;0.50;;
71606;SDS011;60641;53.556;9.914;2024-02-23T00:23:23;4.60;;;0.80;;
71606;SDS011;60641;53.556;9.914;2024-02-23T00:25:49;2.30;;;0.50;;
71606;SDS011;60641;53.556;9.914;2024-02-23T00:28:16;3.70;;;0.60;;
71606;SDS011;60641;53.556;9.914;2024-02-23T00:30:43;3.10;;;0.40;;
71606;SDS011;60641;53.556;9.914;2024-02-23T00:33:09;2.30;;;0.50;;
71606;SDS011;60641;53.556;9.914;2024-02-23T00:35:36;2.90;;;0.40;;
71606;SDS011;60641;53.556;9.914;2024-02-23T00:38:02;2.80;;;0.50;;
71606;SDS011;60641;53.556;9.914;2024-02-23T00:40:29;3.40;;;0.40;;
71606;SDS011;60641;53.556;9.914;2024-02-23T00:42:55;1.50;;;0.30;;
71606;SDS011;60641;53.556;9.914;2024-02-23T00:45:22;3.50;;;0.40;;
71606;SDS011;60641;53.556;9.914;2024-02-23T00:47:48;2.80;;;0.40;;
71606;SDS011;60641;53.556;9.914;2024-02-23T00:50:15;1.30;;;0.40;;
71606;SDS011;60641;53.556;9.914;2024-02-23T00:52:42;2.20;;;0.20;;
71606;SDS011;60641;53.556;9.914;2024-02-23T00:55:08;1.80;;;0.30;;
71606;SDS011;60641;53.556;9.914;2024-02-23T00:57:35;0.20;;;0.20;;
71606;SDS011;60641;53.556;9.914;2024-02-23T01:00:03;2.30;;;0.20;;
71606;SDS011;60641;53.556;9.914;2024-02-23T01:02:31;0.80;;;0.20;;
71606;SDS011;60641;53.556;9.914;2024-02-23T01:04:59;0.30;;;0.10;;
71606;SDS011;60641;53.556;9.914;2024-02-23T01:07:26;0.20;;;0.20;;
71606;SDS011;60641;53.556;9.914;2024-02-23T01:09:52;0.90;;;0.20;;
71606;SDS011;60641;53.556;9.914;2024-02-23T01:12:19;1.30;;;0.20;;
71606;SDS011;60641;53.556;9.914;2024-02-23T01:14:45;1.70;;;0.20;;
71606;SDS011;60641;53.556;9.914;2024-02-23T01:17:14;0.90;;;0.20;;
71606;SDS011;60641;53.556;9.914;2024-02-23T01:19:42;1.40;;;0.30;;
71606;SDS011;60641;53.556;9.914;2024-02-23T01:22:09;0.70;;;0.30;;
71606;SDS011;60641;53.556;9.914;2024-02-23T01:24:36;0.40;;;0.20;;
71606;SDS011;60641;53.556;9.914;2024-02-23T01:27:02;0.70;;;0.20;;
71606;SDS011;60641;53.556;9.914;2024-02-23T01:29:29;0.60;;;0.20;;
71606;SDS011;60641;53.556;9.914;2024-02-23T01:31:55;0.50;;;0.30;;
71606;SDS011;60641;53.556;9.914;2024-02-23T01:34:22;0.60;;;0.20;;
71606;SDS011;60641;53.556;9.914;2024-02-23T01:36:48;0.30;;;0.20;;
71606;SDS011;60641;53.556;9.914;2024-02-23T01:39:15;0.40;;;0.20;;
71606;SDS011;60641;53.556;9.914;2024-02-23T01:41:41;0.50;;;0.20;;
71606;SDS011;60641;53.556;9.914;2024-02-23T01:44:10;1.10;;;0.20;;
71606;SDS011;60641;53.556;9.914;2024-02-23T01:46:37;0.40;;;0.20;;
71606;SDS011;60641;53.556;9.914;2024-02-23T01:49:03;1.20;;;0.30;;
71606;SDS011;60641;53.556;9.914;2024-02-23T01:51:31;0.50;;;0.20;;
71606;SDS011;60641;53.556;9.914;2024-02-23T01:53:58;0.80;;;0.20;;
71606;SDS011;60641;53.556;9.914;2024-02-23T01:56:25;1.70;;;0.20;;
71606;SDS011;60641;53.556;9.914;2024-02-23T01:58:52;1.80;;;0.20;;
71606;SDS011;60641;53.556;9.914;2024-02-23T02:01:18;0.80;;;0.20;;
71606;SDS011;60641;53.556;9.914;2024-02-23T02:03:45;0.60;;;0.10;;
71606;SDS011;60641;53.556;9.914;2024-02-23T02:06:11;1.50;;;0.20;;
71606;SDS011;60641;53.556;9.914;2024-02-23T02:08:38;0.70;;;0.20;;
71606;SDS011;60641;53.556;9.914;2024-02-23T02:11:04;0.10;;;0.10;;
71606;SDS011;60641;53.556;9.914;2024-02-23T02:13:31;0.50;;;0.10;;
71606;SDS011;60641;53.556;9.914;2024-02-23T02:16:00;0.20;;;0.10;;
71606;SDS011;60641;53.556;9.914;2024-02-23T02:18:28;0.40;;;0.10;;
71606;SDS011;60641;53.556;9.914;2024-02-23T02:20:55;2.40;;;0.10;;
71606;SDS011;60641;53.556;9.914;2024-02-23T02:23:25;0.30;;;0.20;;
71606;SDS011;60641;53.556;9.914;2024-02-23T02:25:55;0.80;;;0.20;;
71606;SDS011;60641;53.556;9.914;2024-02-23T02:28:23;0.80;;;0.20;;
71606;SDS011;60641;53.556;9.914;2024-02-23T02:30:50;0.20;;;0.10;;
71606;SDS011;60641;53.556;9.914;2024-02-23T02:33:17;0.90;;;0.20;;
71606;SDS011;60641;53.556;9.914;2024-02-23T02:35:44;0.10;;;0.10;;
71606;SDS011;60641;53.556;9.914;2024-02-23T02:38:11;1.10;;;0.20;;
71606;SDS011;60641;53.556;9.914;2024-02-23T02:40:37;0.20;;;0.10;;
71606;SDS011;60641;53.556;9.914;2024-02-23T02:43:04;0.70;;;0.10;;
71606;SDS011;60641;53.556;9.914;2024-02-23T02:45:31;0.10;;;0.10;;
71606;SDS011;60641;53.556;9.914;2024-02-23T02:47:59;0.90;;;0.10;;
71606;SDS011;60641;53.556;9.914;2024-02-23T02:50:26;0.40;;;0.20;;
71606;SDS011;60641;53.556;9.914;2024-02-23T02:52:52;1.20;;;0.20;;
71606;SDS011;60641;53.556;9.914;2024-02-23T02:55:19;0.60;;;0.10;;
71606;SDS011;60641;53.556;9.914;2024-02-23T02:57:46;0.10;;;0.10;;
71606;SDS011;60641;53.556;9.914;2024-02-23T03:00:12;0.40;;;0.20;;
71606;SDS011;60641;53.556;9.914;2024-02-23T03:02:39;0.40;;;0.10;;
71606;SDS011;60641;53.556;9.914;2024-02-23T03:05:05;0.60;;;0.10;;
71606;SDS011;60641;53.556;9.914;2024-02-23T03:07:32;0.80;;;0.20;;
71606;SDS011;60641;53.556;9.914;2024-02-23T03:09:58;0.90;;;0.20;;
71606;SDS011;60641;53.556;9.914;2024-02-23T03:12:25;2.20;;;0.20;;
71606;SDS011;60641;53.556;9.914;2024-02-23T03:14:51;0.40;;;0.20;;
71606;SDS011;60641;53.556;9.914;2024-02-23T03:17:18;1.50;;;0.20;;
71606;SDS011;60641;53.556;9.914;2024-02-23T03:19:44;1.40;;;0.10;;
71606;SDS011;60641;53.556;9.914;2024-02-23T03:22:11;1.60;;;0.20;;
71606;SDS011;60641;53.556;9.914;2024-02-23T03:24:37;0.70;;;0.20;;
71606;SDS011;60641;53.556;9.914;2024-02-23T03:27:04;1.30;;;0.20;;
71606;SDS011;60641;53.556;9.914;2024-02-23T03:29:30;0.60;;;0.20;;
71606;SDS011;60641;53.556;9.914;2024-02-23T03:31:57;0.80;;;0.30;;
71606;SDS011;60641;53.556;9.914;2024-02-23T03:34:23;1.10;;;0.40;;
71606;SDS011;60641;53.556;9.914;2024-02-23T03:36:50;1.80;;;0.20;;
71606;SDS011;60641;53.556;9.914;2024-02-23T03:39:16;1.30;;;0.30;;
71606;SDS011;60641;53.556;9.914;2024-02-23T03:41:43;1.30;;;0.30;;
71606;SDS011;60641;53.556;9.914;2024-02-23T03:44:09;1.10;;;0.30;;
71606;SDS011;60641;53.556;9.914;2024-02-23T03:46:36;0.80;;;0.20;;
71606;SDS011;60641;53.556;9.914;2024-02-23T03:49:02;0.50;;;0.20;;
71606;SDS011;60641;53.556;9.914;2024-02-23T03:51:29;1.70;;;0.20;;
71606;SDS011;60641;53.556;9.914;2024-02-23T03:53:56;2.90;;;0.20;;
71606;SDS011;60641;53.556;9.914;2024-02-23T03:56:22;1.60;;;0.20;;
71606;SDS011;60641;53.556;9.914;2024-02-23T03:58:49;0.70;;;0.20;;
71606;SDS011;60641;53.556;9.914;2024-02-23T04:01:15;1.10;;;0.20;;
71606;SDS011;60641;53.556;9.914;2024-02-23T04:03:41;0.80;;;0.20;;
71606;SDS011;60641;53.556;9.914;2024-02-23T04:06:08;1.90;;;0.30;;
71606;SDS011;60641;53.556;9.914;2024-02-23T04:08:34;1.30;;;0.20;;
71606;SDS011;60641;53.556;9.914;2024-02-23T04:11:01;2.00;;;0.30;;
71606;SDS011;60641;53.556;9.914;2024-02-23T04:13:27;1.90;;;0.30;;
71606;SDS011;60641;53.556;9.914;2024-02-23T04:15:54;1.80;;;0.30;;
71606;SDS011;60641;53.556;9.914;2024-02-23T04:18:20;1.10;;;0.20;;
71606;SDS011;60641;53.556;9.914;2024-02-23T04:20:47;0.70;;;0.30;;
71606;SDS011;60641;53.556;9.914;2024-02-23T04:23:13;2.10;;;0.30;;
71606;SDS011;60641;53.556;9.914;2024-02-23T04:25:40;2.30;;;0.30;;
71606;SDS011;60641;53.556;9.914;2024-02-23T04:28:07;2.30;;;0.30;;
71606;SDS011;60641;53.556;9.914;2024-02-23T04:30:33;2.50;;;0.20;;
71606;SDS011;60641;53.556;9.914;2024-02-23T04:33:00;1.80;;;0.20;;
71606;SDS011;60641;53.556;9.914;2024-02-23T04:35:26;1.80;;;0.30;;
71606;SDS011;60641;53.556;9.914;2024-02-23T04:37:53;1.20;;;0.20;;
71606;SDS011;60641;53.556;9.914;2024-02-23T04:40:19;2.40;;;0.40;;
71606;SDS011;60641;53.556;9.914;2024-02-23T04:42:45;2.10;;;0.40;;
71606;SDS011;60641;53.556;9.914;2024-02-23T04:45:13;2.20;;;0.50;;
71606;SDS011;60641;53.556;9.914;2024-02-23T04:47:39;2.70;;;0.40;;
71606;SDS011;60641;53.556;9.914;2024-02-23T04:50:06;3.40;;;0.60;;
71606;SDS011;60641;53.556;9.914;2024-02-23T04:52:33;3.30;;;0.50;;
71606;SDS011;60641;53.556;9.914;2024-02-23T04:54:59;5.90;;;0.50;;
71606;SDS011;60641;53.556;9.914;2024-02-23T04:57:26;2.00;;;0.50;;
71606;SDS011;60641;53.556;9.914;2024-02-23T04:59:52;3.90;;;0.50;;
71606;SDS011;60641;53.556;9.914;2024-02-23T05:02:19;3.20;;;0.60;;
71606;SDS011;60641;53.556;9.914;2024-02-23T05:04:45;4.20;;;0.50;;
71606;SDS011;60641;53.556;9.914;2024-02-23T05:07:12;3.90;;;0.60;;
71606;SDS011;60641;53.556;9.914;2024-02-23T05:09:39;5.50;;;0.80;;
71606;SDS011;60641;53.556;9.914;2024-02-23T05:12:07;4.00;;;0.60;;
71606;SDS011;60641;53.556;9.914;2024-02-23T05:14:34;4.20;;;0.60;;
71606;SDS011;60641;53.556;9.914;2024-02-23T05:17:01;4.40;;;0.60;;
71606;SDS011;60641;53.556;9.914;2024-02-23T05:19:27;4.40;;;0.70;;
71606;SDS011;60641;53.556;9.914;2024-02-23T05:21:54;4.60;;;0.70;;
71606;SDS011;60641;53.556;9.914;2024-02-23T05:24:20;5.50;;;0.80;;
71606;SDS011;60641;53.556;9.914;2024-02-23T05:26:47;3.40;;;0.70;;
71606;SDS011;60641;53.556;9.914;2024-02-23T05:29:14;2.30;;;0.50;;
71606;SDS011;60641;53.556;9.914;2024-02-23T05:31:45;4.20;;;0.90;;
71606;SDS011;60641;53.556;9.914;2024-02-23T05:34:16;2.50;;;0.60;;
71606;SDS011;60641;53.556;9.914;2024-02-23T05:36:42;4.70;;;0.80;;
71606;SDS011;60641;53.556;9.914;2024-02-23T05:39:09;5.10;;;0.70;;
71606;SDS011;60641;53.556;9.914;2024-02-23T05:41:36;4.50;;;0.70;;
71606;SDS011;60641;53.556;9.914;2024-02-23T05:44:03;3.60;;;0.90;;
71606;SDS011;60641;53.556;9.914;2024-02-23T05:46:32;4.30;;;0.70;;
71606;SDS011;60641;53.556;9.914;2024-02-23T05:48:59;2.90;;;0.60;;
71606;SDS011;60641;53.556;9.914;2024-02-23T05:51:27;4.40;;;0.70;;
71606;SDS011;60641;53.556;9.914;2024-02-23T05:53:55;4.10;;;0.70;;
71606;SDS011;60641;53.556;9.914;2024-02-23T05:56:22;4.90;;;0.80;;
71606;SDS011;60641;53.556;9.914;2024-02-23T05:58:50;4.70;;;0.90;;
71606;SDS011;60641;53.556;9.914;2024-02-23T06:01:18;2.60;;;0.50;;
71606;SDS011;60641;53.556;9.914;2024-02-23T06:03:45;7.80;;;0.70;;
71606;SDS011;60641;53.556;9.914;2024-02-23T06:06:13;2.60;;;0.60;;
71606;SDS011;60641;53.556;9.914;2024-02-23T06:08:40;3.30;;;0.60;;
71606;SDS011;60641;53.556;9.914;2024-02-23T06:11:08;3.30;;;0.50;;
71606;SDS011;60641;53.556;9.914;2024-02-23T06:13:35;2.90;;;0.70;;
71606;SDS011;60641;53.556;9.914;2024-02-23T06:16:02;3.40;;;0.50;;
71606;SDS011;60641;53.556;9.914;2024-02-23T06:18:29;2.50;;;0.50;;
71606;SDS011;60641;53.556;9.914;2024-02-23T06:20:55;4.10;;;0.90;;
71606;SDS011;60641;53.556;9.914;2024-02-23T06:23:22;3.10;;;0.50;;
71606;SDS011;60641;53.556;9.914;2024-02-23T06:25:48;3.30;;;0.60;;
71606;SDS011;60641;53.556;9.914;2024-02-23T06:28:15;3.70;;;0.50;;
71606;SDS011;60641;53.556;9.914;2024-02-23T06:30:42;3.00;;;0.70;;
71606;SDS011;60641;53.556;9.914;2024-02-23T06:33:08;2.10;;;0.50;;
71606;SDS011;60641;53.556;9.914;2024-02-23T06:35:35;4.30;;;0.60;;
71606;SDS011;60641;53.556;9.914;2024-02-23T06:38:01;3.80;;;0.60;;
71606;SDS011;60641;53.556;9.914;2024-02-23T06:40:28;3.20;;;0.60;;
71606;SDS011;60641;53.556;9.914;2024-02-23T06:42:55;3.40;;;0.60;;
71606;SDS011;60641;53.556;9.914;2024-02-23T06:45:21;7.80;;;0.60;;
71606;SDS011;60641;53.556;9.914;2024-02-23T06:47:51;3.50;;;0.70;;
71606;SDS011;60641;53.556;9.914;2024-02-23T06:50:18;3.00;;;0.70;;
71606;SDS011;60641;53.556;9.914;2024-02-23T06:52:44;3.50;;;0.70;;
71606;SDS011;60641;53.556;9.914;2024-02-23T06:55:13;3.50;;;0.60;;
71606;SDS011;60641;53.556;9.914;2024-02-23T06:57:39;2.60;;;0.60;;
71606;SDS011;60641;53.556;9.914;2024-02-23T07:00:06;4.10;;;0.70;;
71606;SDS011;60641;53.556;9.914;2024-02-23T07:02:33;5.30;;;0.90;;
71606;SDS011;60641;53.556;9.914;2024-02-23T07:05:02;3.80;;;0.70;;
71606;SDS011;60641;53.556;9.914;2024-02-23T07:07:32;5.90;;;0.70;;
71606;SDS011;60641;53.556;9.914;2024-02-23T07:10:00;4.90;;;0.70;;
71606;SDS011;60641;53.556;9.914;2024-02-23T07:12:27;4.00;;;0.90;;
71606;SDS011;60641;53.556;9.914;2024-02-23T07:14:55;3.80;;;0.80;;
71606;SDS011;60641;53.556;9.914;2024-02-23T07:17:22;3.70;;;0.80;;
71606;SDS011;60641;53.556;9.914;2024-02-23T07:19:48;6.30;;;0.90;;
71606;SDS011;60641;53.556;9.914;2024-02-23T07:22:16;6.90;;;0.80;;
71606;SDS011;60641;53.556;9.914;2024-02-23T07:24:46;7.00;;;1.10;;
71606;SDS011;60641;53.556;9.914;2024-02-23T07:27:13;7.30;;;1.00;;
71606;SDS011;60641;53.556;9.914;2024-02-23T07:29:39;4.10;;;0.80;;
71606;SDS011;60641;53.556;9.914;2024-02-23T07:32:06;4.20;;;0.60;;
71606;SDS011;60641;53.556;9.914;2024-02-23T07:34:32;5.40;;;1.00;;
71606;SDS011;60641;53.556;9.914;2024-02-23T07:36:59;5.70;;;0.80;;
71606;SDS011;60641;53.556;9.914;2024-02-23T07:39:25;4.80;;;0.80;;
71606;SDS011;60641;53.556;9.914;2024-02-23T07:41:52;4.10;;;0.80;;
71606;SDS011;60641;53.556;9.914;2024-02-23T07:44:19;5.60;;;1.00;;
71606;SDS011;60641;53.556;9.914;2024-02-23T07:46:45;5.40;;;0.80;;
71606;SDS011;60641;53.556;9.914;2024-02-23T07:49:12;4.80;;;0.90;;
71606;SDS011;60641;53.556;9.914;2024-02-23T07:51:38;4.40;;;0.70;;
71606;SDS011;60641;53.556;9.914;2024-02-23T07:54:05;5.00;;;1.00;;
71606;SDS011;60641;53.556;9.914;2024-02-23T07:56:31;5.60;;;0.90;;
71606;SDS011;60641;53.556;9.914;2024-02-23T07:58:58;6.00;;;0.80;;
71606;SDS011;60641;53.556;9.914;2024-02-23T08:01:25;4.60;;;0.60;;
71606;SDS011;60641;53.556;9.914;2024-02-23T08:03:52;5.50;;;0.90;;
71606;SDS011;60641;53.556;9.914;2024-02-23T08:06:18;3.60;;;0.60;;
71606;SDS011;60641;53.556;9.914;2024-02-23T08:08:46;7.60;;;0.90;;
71606;SDS011;60641;53.556;9.914;2024-02-23T08:11:12;6.30;;;0.90;;
71606;SDS011;60641;53.556;9.914;2024-02-23T08:13:39;5.40;;;0.80;;
71606;SDS011;60641;53.556;9.914;2024-02-23T08:16:07;5.70;;;0.90;;
71606;SDS011;60641;53.556;9.914;2024-02-23T08:18:33;5.10;;;1.00;;
71606;SDS011;60641;53.556;9.914;2024-02-23T08:21:00;7.00;;;0.70;;
71606;SDS011;60641;53.556;9.914;2024-02-23T08:23:29;9.70;;;0.80;;
71606;SDS011;60641;53.556;9.914;2024-02-23T08:25:56;5.70;;;0.80;;
71606;SDS011;60641;53.556;9.914;2024-02-23T08:28:24;7.30;;;1.00;;
71606;SDS011;60641;53.556;9.914;2024-02-23T08:30:50;4.90;;;0.80;;
71606;SDS011;60641;53.556;9.914;2024-02-23T08:33:17;5.60;;;0.90;;
71606;SDS011;60641;53.556;9.914;2024-02-23T08:35:44;5.10;;;0.60;;
71606;SDS011;60641;53.556;9.914;2024-02-23T08:38:10;4.80;;;0.50;;
71606;SDS011;60641;53.556;9.914;2024-02-23T08:40:37;5.90;;;0.80;;
71606;SDS011;60641;53.556;9.914;2024-02-23T08:43:03;7.40;;;1.10;;
71606;SDS011;60641;53.556;9.914;2024-02-23T08:45:30;5.20;;;0.90;;
71606;SDS011;60641;53.556;9.914;2024-02-23T08:47:56;5.30;;;0.80;;
71606;SDS011;60641;53.556;9.914;2024-02-23T08:50:23;6.10;;;0.90;;
71606;SDS011;60641;53.556;9.914;2024-02-23T08:52:49;6.00;;;0.80;;
71606;SDS011;60641;53.556;9.914;2024-02-23T08:55:16;5.70;;;0.70;;
71606;SDS011;60641;53.556;9.914;2024-02-23T08:57:43;7.90;;;0.90;;
71606;SDS011;60641;53.556;9.914;2024-02-23T09:00:10;5.70;;;0.90;;
71606;SDS011;60641;53.556;9.914;2024-02-23T09:02:37;5.90;;;0.80;;
71606;SDS011;60641;53.556;9.914;2024-02-23T09:05:04;4.50;;;0.90;;
71606;SDS011;60641;53.556;9.914;2024-02-23T09:07:31;4.70;;;0.80;;
71606;SDS011;60641;53.556;9.914;2024-02-23T09:09:57;5.10;;;0.80;;
71606;SDS011;60641;53.556;9.914;2024-02-23T09:12:24;6.60;;;0.80;;
71606;SDS011;60641;53.556;9.914;2024-02-23T09:14:51;5.70;;;1.10;;
71606;SDS011;60641;53.556;9.914;2024-02-23T09:17:17;7.10;;;1.00;;
71606;SDS011;60641;53.556;9.914;2024-02-23T09:19:46;7.40;;;1.00;;
71606;SDS011;60641;53.556;9.914;2024-02-23T09:22:13;5.80;;;0.70;;
71606;SDS011;60641;53.556;9.914;2024-02-23T09:24:41;5.60;;;0.60;;
71606;SDS011;60641;53.556;9.914;2024-02-23T09:27:08;5.60;;;0.90;;
71606;SDS011;60641;53.556;9.914;2024-02-23T09:29:34;3.50;;;0.70;;
71606;SDS011;60641;53.556;9.914;2024-02-23T09:32:01;8.90;;;0.90;;
71606;SDS011;60641;53.556;9.914;2024-02-23T09:34:28;6.50;;;0.80;;
71606;SDS011;60641;53.556;9.914;2024-02-23T09:36:55;4.90;;;0.80;;
71606;SDS011;60641;53.556;9.914;2024-02-23T09:39:22;6.50;;;1.00;;
71606;SDS011;60641;53.556;9.914;2024-02-23T09:41:52;5.90;;;0.70;;
71606;SDS011;60641;53.556;9.914;2024-02-23T09:44:20;5.30;;;0.80;;
71606;SDS011;60641;53.556;9.914;2024-02-23T09:46:48;5.00;;;0.80;;
71606;SDS011;60641;53.556;9.914;2024-02-23T09:49:16;5.60;;;0.60;;
71606;SDS011;60641;53.556;9.914;2024-02-23T09:51:42;5.50;;;0.80;;
71606;SDS011;60641;53.556;9.914;2024-02-23T09:54:10;5.60;;;0.70;;
71606;SDS011;60641;53.556;9.914;2024-02-23T09:56:36;7.20;;;0.80;;
71606;SDS011;60641;53.556;9.914;2024-02-23T09:59:03;7.30;;;0.90;;
71606;SDS011;60641;53.556;9.914;2024-02-23T10:01:31;5.00;;;0.80;;
71606;SDS011;60641;53.556;9.914;2024-02-23T10:04:00;6.80;;;1.10;;
71606;SDS011;60641;53.556;9.914;2024-02-23T10:06:27;7.00;;;0.90;;
71606;SDS011;60641;53.556;9.914;2024-02-23T10:08:54;8.40;;;1.10;;
71606;SDS011;60641;53.556;9.914;2024-02-23T10:11:20;6.60;;;1.00;;
71606;SDS011;60641;53.556;9.914;2024-02-23T10:13:47;8.50;;;1.10;;
71606;SDS011;60641;53.556;9.914;2024-02-23T10:16:18;6.00;;;0.80;;
71606;SDS011;60641;53.556;9.914;2024-02-23T10:18:48;5.70;;;1.10;;
71606;SDS011;60641;53.556;9.914;2024-02-23T10:21:15;5.40;;;1.00;;
71606;SDS011;60641;53.556;9.914;2024-02-23T10:23:44;7.80;;;0.80;;
71606;SDS011;60641;53.556;9.914;2024-02-23T10:26:11;8.90;;;0.90;;
71606;SDS011;60641;53.556;9.914;2024-02-23T10:28:37;5.80;;;0.80;;
71606;SDS011;60641;53.556;9.914;2024-02-23T10:31:07;5.50;;;1.00;;
71606;SDS011;60641;53.556;9.914;2024-02-23T10:33:33;4.40;;;0.80;;
71606;SDS011;60641;53.556;9.914;2024-02-23T10:36:00;5.20;;;1.10;;
71606;SDS011;60641;53.556;9.914;2024-02-23T10:38:27;4.40;;;1.10;;
71606;SDS011;60641;53.556;9.914;2024-02-23T10:40:55;5.20;;;0.90;;
71606;SDS011;60641;53.556;9.914;2024-02-23T10:43:26;7.50;;;1.20;;
71606;SDS011;60641;53.556;9.914;2024-02-23T10:45:57;6.30;;;1.00;;
71606;SDS011;60641;53.556;9.914;2024-02-23T10:48:24;6.10;;;0.90;;
71606;SDS011;60641;53.556;9.914;2024-02-23T10:50:50;6.80;;;1.00;;
71606;SDS011;60641;53.556;9.914;2024-02-23T10:53:17;5.40;;;0.90;;
71606;SDS011;60641;53.556;9.914;2024-02-23T10:55:45;6.30;;;0.80;;
71606;SDS011;60641;53.556;9.914;2024-02-23T10:58:12;11.20;;;1.50;;
71606;SDS011;60641;53.556;9.914;2024-02-23T11:00:40;5.40;;;1.10;;
71606;SDS011;60641;53.556;9.914;2024-02-23T11:03:06;4.90;;;0.80;;
71606;SDS011;60641;53.556;9.914;2024-02-23T11:05:33;3.40;;;0.70;;
71606;SDS011;60641;53.556;9.914;2024-02-23T11:08:00;5.10;;;0.70;;
71606;SDS011;60641;53.556;9.914;2024-02-23T11:10:26;5.90;;;0.60;;
71606;SDS011;60641;53.556;9.914;2024-02-23T11:12:57;4.00;;;0.50;;
71606;SDS011;60641;53.556;9.914;2024-02-23T11:15:26;4.90;;;0.70;;
71606;SDS011;60641;53.556;9.914;2024-02-23T11:17:54;4.80;;;0.70;;
71606;SDS011;60641;53.556;9.914;2024-02-23T11:20:21;6.30;;;1.10;;
71606;SDS011;60641;53.556;9.914;2024-02-23T11:22:51;6.30;;;0.70;;
71606;SDS011;60641;53.556;9.914;2024-02-23T11:25:19;5.60;;;0.80;;
71606;SDS011;60641;53.556;9.914;2024-02-23T11:27:49;3.90;;;0.70;;
71606;SDS011;60641;53.556;9.914;2024-02-23T11:30:16;5.80;;;1.00;;
71606;SDS011;60641;53.556;9.914;2024-02-23T11:32:44;5.60;;;0.60;;
71606;SDS011;60641;53.556;9.914;2024-02-23T11:35:13;6.20;;;0.80;;
71606;SDS011;60641;53.556;9.914;2024-02-23T11:37:48;5.10;;;0.70;;
71606;SDS011;60641;53.556;9.914;2024-02-23T11:40:17;6.00;;;0.60;;
71606;SDS011;60641;53.556;9.914;2024-02-23T11:42:44;5.00;;;0.70;;
71606;SDS011;60641;53.556;9.914;2024-02-23T11:45:10;5.40;;;0.70;;
71606;SDS011;60641;53.556;9.914;2024-02-23T11:47:37;5.70;;;0.70;;
71606;SDS011;60641;53.556;9.914;2024-02-23T11:50:07;5.30;;;0.80;;
71606;SDS011;60641;53.556;9.914;2024-02-23T11:52:34;7.40;;;0.70;;
71606;SDS011;60641;53.556;9.914;2024-02-23T11:55:01;3.20;;;0.50;;
71606;SDS011;60641;53.556;9.914;2024-02-23T11:57:28;4.80;;;0.70;;
71606;SDS011;60641;53.556;9.914;2024-02-23T11:59:55;4.40;;;0.70;;
71606;SDS011;60641;53.556;9.914;2024-02-23T12:02:21;4.10;;;0.70;;
71606;SDS011;60641;53.556;9.914;2024-02-23T12:04:47;4.90;;;0.70;;
71606;SDS011;60641;53.556;9.914;2024-02-23T12:07:14;6.10;;;0.90;;
71606;SDS011;60641;53.556;9.914;2024-02-23T12:09:41;4.90;;;0.70;;
71606;SDS011;60641;53.556;9.914;2024-02-23T12:12:08;4.50;;;0.80;;
71606;SDS011;60641;53.556;9.914;2024-02-23T12:14:35;5.10;;;0.90;;
71606;SDS011;60641;53.556;9.914;2024-02-23T12:17:02;6.80;;;0.80;;
71606;SDS011;60641;53.556;9.914;2024-02-23T12:19:33;3.60;;;0.60;;
71606;SDS011;60641;53.556;9.914;2024-02-23T12:22:04;6.10;;;0.70;;
71606;SDS011;60641;53.556;9.914;2024-02-23T12:24:30;5.60;;;0.70;;
71606;SDS011;60641;53.556;9.914;2024-02-23T12:26:57;5.80;;;0.70;;
71606;SDS011;60641;53.556;9.914;2024-02-23T12:29:24;5.40;;;0.60;;
71606;SDS011;60641;53.556;9.914;2024-02-23T12:31:50;4.20;;;0.60;;
71606;SDS011;60641;53.556;9.914;2024-02-23T12:34:18;6.90;;;0.70;;
71606;SDS011;60641;53.556;9.914;2024-02-23T12:36:48;5.50;;;0.60;;
71606;SDS011;60641;53.556;9.914;2024-02-23T12:39:14;4.80;;;0.90;;
71606;SDS011;60641;53.556;9.914;2024-02-23T12:41:40;7.30;;;1.20;;
71606;SDS011;60641;53.556;9.914;2024-02-23T12:44:07;4.80;;;0.80;;
71606;SDS011;60641;53.556;9.914;2024-02-23T12:46:33;6.40;;;0.80;;
71606;SDS011;60641;53.556;9.914;2024-02-23T12:49:00;4.10;;;0.60;;
71606;SDS011;60641;53.556;9.914;2024-02-23T12:51:26;2.00;;;0.50;;
71606;SDS011;60641;53.556;9.914;2024-02-23T12:53:53;4.50;;;0.60;;
71606;SDS011;60641;53.556;9.914;2024-02-23T12:56:20;6.10;;;1.00;;
71606;SDS011;60641;53.556;9.914;2024-02-23T12:58:46;4.90;;;0.80;;
71606;SDS011;60641;53.556;9.914;2024-02-23T13:01:13;3.00;;;0.60;;
71606;SDS011;60641;53.556;9.914;2024-02-23T13:03:39;5.00;;;0.60;;
71606;SDS011;60641;53.556;9.914;2024-02-23T13:06:09;3.70;;;0.60;;
71606;SDS011;60641;53.556;9.914;2024-02-23T13:08:35;4.00;;;0.60;;
71606;SDS011;60641;53.556;9.914;2024-02-23T13:11:02;4.00;;;0.70;;
71606;SDS011;60641;53.556;9.914;2024-02-23T13:13:29;3.60;;;0.70;;
71606;SDS011;60641;53.556;9.914;2024-02-23T13:15:56;3.00;;;0.50;;
71606;SDS011;60641;53.556;9.914;2024-02-23T13:18:23;5.40;;;0.70;;
71606;SDS011;60641;53.556;9.914;2024-02-23T13:20:50;4.40;;;0.80;;
71606;SDS011;60641;53.556;9.914;2024-02-23T13:23:16;4.50;;;0.70;;
71606;SDS011;60641;53.556;9.914;2024-02-23T13:25:44;3.70;;;0.60;;
71606;SDS011;60641;53.556;9.914;2024-02-23T13:28:10;2.70;;;0.60;;
71606;SDS011;60641;53.556;9.914;2024-02-23T13:30:37;4.30;;;0.60;;
71606;SDS011;60641;53.556;9.914;2024-02-23T13:33:04;4.20;;;0.60;;
71606;SDS011;60641;53.556;9.914;2024-02-23T13:35:32;3.70;;;0.50;;
71606;SDS011;60641;53.556;9.914;2024-02-23T13:37:59;5.70;;;0.60;;
71606;SDS011;60641;53.556;9.914;2024-02-23T13:40:26;3.40;;;0.70;;
71606;SDS011;60641;53.556;9.914;2024-02-23T13:42:52;5.50;;;0.80;;
71606;SDS011;60641;53.556;9.914;2024-02-23T13:45:19;7.30;;;0.90;;
71606;SDS011;60641;53.556;9.914;2024-02-23T13:48:01;5.70;;;1.00;;
71606;SDS011;60641;53.556;9.914;2024-02-23T13:50:29;7.10;;;0.80;;
71606;SDS011;60641;53.556;9.914;2024-02-23T13:52:56;3.20;;;0.70;;
71606;SDS011;60641;53.556;9.914;2024-02-23T13:55:23;4.00;;;0.60;;
71606;SDS011;60641;53.556;9.914;2024-02-23T13:57:49;4.50;;;0.80;;
71606;SDS011;60641;53.556;9.914;2024-02-23T14:00:16;3.10;;;0.40;;
71606;SDS011;60641;53.556;9.914;2024-02-23T14:02:45;4.10;;;0.60;;
71606;SDS011;60641;53.556;9.914;2024-02-23T14:05:12;5.50;;;0.90;;
71606;SDS011;60641;53.556;9.914;2024-02-23T14:07:38;2.20;;;0.40;;
71606;SDS011;60641;53.556;9.914;2024-02-23T14:10:05;2.90;;;0.40;;
71606;SDS011;60641;53.556;9.914;2024-02-23T14:12:33;7.70;;;1.10;;
71606;SDS011;60641;53.556;9.914;2024-02-23T14:14:59;5.60;;;0.80;;
71606;SDS011;60641;53.556;9.914;2024-02-23T14:17:26;5.80;;;0.70;;
71606;SDS011;60641;53.556;9.914;2024-02-23T14:19:53;5.70;;;0.90;;
71606;SDS011;60641;53.556;9.914;2024-02-23T14:22:19;7.90;;;1.30;;
71606;SDS011;60641;53.556;9.914;2024-02-23T14:24:46;5.50;;;1.00;;
71606;SDS011;60641;53.556;9.914;2024-02-23T14:27:12;4.90;;;0.70;;
71606;SDS011;60641;53.556;9.914;2024-02-23T14:29:39;3.40;;;0.60;;
71606;SDS011;60641;53.556;9.914;2024-02-23T14:32:05;3.50;;;0.60;;
71606;SDS011;60641;53.556;9.914;2024-02-23T14:34:32;4.00;;;0.70;;
71606;SDS011;60641;53.556;9.914;2024-02-23T14:36:59;3.20;;;0.60;;
71606;SDS011;60641;53.556;9.914;2024-02-23T14:39:26;4.60;;;0.70;;
71606;SDS011;60641;53.556;9.914;2024-02-23T14:41:52;5.30;;;1.00;;
71606;SDS011;60641;53.556;9.914;2024-02-23T14:44:19;4.30;;;0.60;;
71606;SDS011;60641;53.556;9.914;2024-02-23T14:46:45;4.20;;;0.60;;